Share

Rockhampton, Queensland

Rockhampton (YBRK) Elev 49 ft | 23.38 °S, 150.48 °E | Change Station

Current weather conditions updated 27 minutes ago

Scattered Clouds
Scattered Clouds
84 °F
Feels Like 85 °F
N
7
Wind Variable Wind from NNW
Sunrise 6:12 AM
Sunset 5:43 PM
Moon Waning Gibbous

Today is forecast to be nearly the same temperature as yesterday.

Pressure 29.95 in
Visibility 6.2 miles
Clouds Scattered Clouds 10000 ft
Heat Index 85 °F
Dew Point 63 °F
Humidity 48%
Rainfall 0.00 in
Snow Depth Not available.
UV 5 out of 16
Pollen Not available.
Air Quality Not available.
Flu Activity Not available.
METAR YBRK 170400Z AUTO 33006KT 9999 // SCT100 29/17 Q1014

More Conditions Fewer Conditions

Pressure 29.95 in
Visibility 6.2 miles
Clouds Scattered Clouds 10000 ft
Heat Index 85 °F
Dew Point 63 °F
Humidity 48%
Rainfall 0.00 in
Snow Depth Not available.
UV 5 out of 16
Pollen Not available.
Air Quality Not available.
Flu Activity Not available.
METAR YBRK 170400Z AUTO 33006KT 9999 // SCT100 29/17 Q1014

More Conditions Fewer Conditions

10-Day Forecast

Almanac

Astronomy

Apr. 17, 2014 Rise Set
Actual Time 6:12 AM EST 5:43 PM EST
Civil Twilight 5:49 AM EST 6:05 PM EST
Nautical Twilight 5:22 AM EST 6:32 PM EST
Astronomical Twilight 4:56 AM EST 6:58 PM EST
Moon 7:11 PM EST 7:42 AM EST
Length of Visible Light 12h 16m
Length of Day
11h 30m
Tomorrow will be 1m 14s shorter.
Waning Gibbous, 96% of the Moon is Illuminated
Today
Waning Gibbous
Apr 22
Last Quarter
Apr 29
New
May 6
First Quarter
May 14
Full

Yesterday's Extremes

Country Highs Country Lows

Community

  • symphony in blue....
    symphony in blue....
  • Dawn Surprise
    Dawn Surprise
  • Yucca delight
    Yucca delight
  • Sunset inside of the Ocean
    Sunset inside of the Ocean
  • Lunar eclipse 15 April 2014
    Lunar eclipse 15 April 2014

WunderPhotos

Upload Photos

1,701,847 photos uploaded!

WunderBlogs® & News

Nearby

Snow Depth

Not available.

Coastal Water Temperatures

Place Temperature
No Stations Reporting

Earthquake Activity

City Distance Mag. Time & Date
No recent earthquake activity has been reported nearby.
Minimum magnitude displayed is 2.5.

Nearby Weather Stations

Station Location Temp. Heat Index Dew Point Humidity Wind Precip. Elev Updated Type
North Rockhampton, Berserker 82.9 °F 86 °F 69 °F 63% South  at  6.9 mph 0.00 in / hr 62 ft 2:27 PM EST Rapid Fire
Glendale, Queensland, Glendale 84.9 °F 91 °F 72 °F 65% SE  at  2.2 mph 0.00 in / hr 105 ft 2:27 PM EST Rapid Fire
Mount Morgan, Mount Morgan 88.2 °F 84 °F 27 °F 11% North  at  0.0 mph 0.00 in / hr 784 ft 2:14 PM EST Normal

Show More Stations Show Fewer Stations

What do you think?

We're not finished. Please let us know what you like, what you don't like, and what you are still missing.